Aktualne dane pomiarowe

Uwaga, wersja testowa! Automatyczne pobieranie danych za pomocą narzędzi lub skryptów to umożliwiających jest zabronione.

Dane meteo z obszaru Polski uzyskane na podstawie depesz SYNOP pobieranych co godzinę z NWS. Najedź myszką na symbol przedstawiony w tabeli, aby uzyskać informacje co do jego znaczenia. Prosimy pamiętać, że to testowa wersja strony, która jeszcze nie jest ukończona. Stworzono również jest krótki FAQ dotyczący korzystania z tej podstrony Anomalie temperatury w chwili obecnej odniesione są do okresu referencyjnego 1951-2016. Okres ten będzie później zmieniony na 1981-2010. Kliknij ikonę aby pobrać plik CSV. Kliknij ikonę aby wygenerować mapę synoptyczną dla danego terminu.

Wybierz Datę:    

        

Elbląg-Milejewo (12160)

Dane terminowe dla wybranej stacji. Kliknij datę, aby otrzymać dane z tego terminu dla wszystkich stacji.

TemperaturaZachmurzenieWiatrCiśnienieOpadyPogoda
 Data t td wb tx tn tg rh  Nt Nl Cl Cm Ch ws wd g1 g2 wx mslp ppp ch 24h 12h t ww ww w1 w2  
2019-08-08 23:00:00 12.9 11.3 11.8--- 9020.0wx-5wx--51010.2 988.1 -0.2---------
2019-08-08 22:00:00 12.7 11.4 11.8--- 9220.0wxwxwx3wx--31009.9 987.8 0.3---------
2019-08-08 21:00:00 13.8 12.5 12.9--- 9220.0wxwxwx4wx-1341009.6 987.6 0.2---wx-w1--
2019-08-08 20:00:00 14.5 13.2 13.6--- 9210.0wxwxwx8wx---1010.2 988.3 1.1---wx---
2019-08-08 19:00:00 13.7 11.4 12.1--- 8615.0wxwxwx2wx-1321009.5 987.5 0.2---wx-w1w2--
2019-08-08 18:00:00 18.4 15.1 16.1 21.2 15.6- 8115.0wxwxwxwx1wx-1011009.0 987.4 0.1- 0.912wx-w1--
2019-08-08 17:00:00 19.2 14.0 15.8--- 7220.0wxwxwxwx1wx--11008.8 987.2 0.1---------
2019-08-08 16:00:00 20.2 14.6 16.5--- 7020.0wxwxwxwx2wx---1008.8 987.3 0.6---------
2019-08-08 15:00:00 19.4 14.9 16.4--- 7520.0wxwxwxwx2wx---1008.9 987.3 0.7---wx-w1--
2019-08-08 14:00:00 18.0 15.1 16.0--- 8310.0wxwxwx3wx--31008.8 987.1 1.0---wx-w1--
2019-08-08 13:00:00 21.0 13.9 16.4--- 6420.0wxwxwxwx3wx-1031008.1 986.7 1.3---------
2019-08-08 12:00:00 20.1 14.2 16.2--- 6920.0wxwxwxwx4wx-1041008.1 986.6 1.4--6wx-w1w2--
2019-08-08 11:00:00 19.6 14.2 16.0--- 7120.0wxwxwxwx5wx--51007.6 986.1 1.4---wx-w1--
2019-08-08 10:00:00 19.4 14.2 16.0--- 7220.0wxwxwx5wx--51006.9 985.4 1.4---wx---
2019-08-08 09:00:00 18.9 15.6 16.6--- 8115.0wxwxwx5wx-1051006.7 985.2 1.7---------
2019-08-08 08:00:00 18.0 16.2 16.7--- 8910.0wxwxwx4wx9941006.3 984.7 1.7---------
2019-08-08 07:00:00 17.5 16.2 16.6--- 9210.0wxwxwx2wx--21005.6 984.0 1.6---------
2019-08-08 06:00:00 15.6 15.0 15.1 21.6 14.9 15 9610.0wxwxwx2wx--21005.3 983.5 1.3 15.1 15.012wx-w1- 10.1
2019-08-08 05:00:00 15.3 14.2 14.5--- 9315.0wxwxwx3wx---1004.8 983.0 0.7---wx-w1--
2019-08-08 04:00:00 16.6 16.1 16.2--- 973.5wxwxwx2wx---1004.1 982.4 0.2---wx-w1--
2019-08-08 03:00:00 16.1 15.5 15.6--- 964.0wxwxwx2wx--21003.9 982.2 -0.5---wx---
2019-08-08 02:00:00 16.5 15.7 15.9--- 954.0wxwxwx1wx--11004.0 982.3 -0.4---wx---
2019-08-08 01:00:00 16.7 15.9 16.1--- 9510.0wxwxwx1wx--11003.8 982.2 -0.8---wx-w1--
2019-08-08 00:00:00 16.5 15.5 15.8--- 943.0wxwxwx1wx-811004.4 982.7 -1.1- 11.06wx-w1--
2019-08-07 23:00:00 17.2 15.4 15.9--- 8915.0wxwxwx2wx--21004.3 982.7 -0.7---wx---
2019-08-07 22:00:00 17.1 15.8 16.2--- 9215.0wxwxwx2wx--21004.6 983.0 -0.7---wx-w1w2--
2019-08-07 21:00:00 17.1 16.3 16.5--- 956.0wxwxwx3wx-831005.5 983.8 -0.1---wx-w1--
2019-08-07 20:00:00 20.8 14.4 16.6--- 6720.0wxwxwx2wx8--1004.8 983.4 -0.6---wx---
2019-08-07 19:00:00 21.0 13.9 16.4--- 6420.0wxwxwx1wx---1005.1 983.7 -0.6---wx---
2019-08-07 18:00:00 21.6 14.3 16.9 24.4 18.3- 6320.0wxwxwxwx2wx--21005.2 983.9 -0.8- 0.012------
2019-08-07 17:00:00 22.3 15.4 17.8--- 6520.0wxwxwxwxwx1wx--11005.3 984.0 -1.1---------
2019-08-07 16:00:00 23.4 14.4 17.6--- 5720.0wxwxwxwxwx2wx--21005.5 984.3 -1.2---------
2019-08-07 15:00:00 23.7 13.3 17.2--- 5220.0wxwxwxwxwx2wx--21005.9 984.7 -1.2---------
2019-08-07 14:00:00 24.2 13.1 17.3--- 5020.0wxwxwxwx4wx---1006.3 985.1 -1.1---------
2019-08-07 13:00:00 23.2 14.2 17.5--- 5720.0wxwxwxwx4wx--41006.7 985.5 -0.8---------
2019-08-07 12:00:00 22.8 14.6 17.5--- 6020.0wxwxwxwx3wx--31007.2 985.9 -0.7- 0.06------
2019-08-07 11:00:00 22.3 15.9 18.0--- 6720.0wxwxwxwx3wx--31007.5 986.2 -0.3---------
2019-08-07 10:00:00 20.9 15.2 17.1--- 7020.0wxwxwxwx2wx--21007.7 986.3 -0.2---------
2019-08-07 09:00:00 20.6 14.7 16.7--- 6915.0wxwxwxwxwx2wx--21008.0 986.6 0.4---------
2019-08-07 08:00:00 19.8 14.2 16.1--- 7010.0wxwxwxwx2wx--21008.0 986.5 0.6---------
2019-08-07 07:00:00 19.6 14.4 16.2--- 728.0wxwxwxwxwx1wx--11008.0 986.5 0.6---wx---
2019-08-07 06:00:00 18.3 15.2 16.2 18.6 15.4 14 826.0wx-wxwx1wx--11007.8 986.2 0.1 1.3 0.512wx-- 6.3
2019-08-07 05:00:00 17.1 15.4 15.9--- 908.0wx-wxwx2wx--21007.6 985.9 -0.5---wx---
2019-08-07 04:00:00 15.7 14.9 15.1--- 956.0wxwxwxwxwx1wx---1007.7 985.9 -0.6---wx---
2019-08-07 03:00:00 15.8 15.0 15.2--- 956.0wxwxwxwx1wx--11007.9 986.1 -0.1---wx---
2019-08-07 02:00:00 15.5 14.5 14.8--- 9410.0wxwxwx3wx--31008.2 986.4 0.2---------
2019-08-07 01:00:00 15.9 14.1 14.6--- 8920.0wxwxwxwx4wx--41008.3 986.5 0.1---------
2019-08-07 00:00:00 16.0 13.5 14.3--- 8520.0wxwxwx4wx--41008.0 986.2 -0.8- 0.56wx-w1w2--
1.1 ms

 

Print Friendly, PDF & Email